Time;durP1;ratioP1;P1;durP2;ratioP2;P2;SDS_P1;SDS_P2;PMS_P1;PMS_P2;Temp;Humidity;BMP_temperature;BMP_pressure;BME280_temperature;BME280_humidity;BME280_pressure;Samples;Min_cycle;Max_cycle;Signal;HPM_P1;HPM_P2
2024/04/18 00:01:21;;;;;;;3.35;1.50;;;;;;;2.57;100.00;96751.59;5330800;26;20012;-61
2024/04/18 00:03:48;;;;;;;5.65;1.90;;;;;;;2.65;100.00;96751.34;5330681;26;20487;-61
2024/04/18 00:06:15;;;;;;;3.42;1.60;;;;;;;2.55;100.00;96749.13;5329938;26;20013;-61
2024/04/18 00:08:42;;;;;;;4.93;1.85;;;;;;;2.64;100.00;96752.38;5330310;26;20001;-61
2024/04/18 00:11:23;;;;;;;3.70;1.73;;;;;;;2.71;100.00;96750.47;5328962;26;20005;-59
2024/04/18 00:13:52;;;;;;;2.85;1.63;;;;;;;2.66;100.00;96738.78;5319683;26;20011;-61
2024/04/18 00:16:34;;;;;;;4.00;1.55;;;;;;;2.70;100.00;96748.81;5323020;26;20024;-61
2024/04/18 00:19:16;;;;;;;;;;;;;;;2.67;100.00;96751.13;5317357;26;20005;-61
2024/04/18 00:21:59;;;;;;;3.20;1.65;;;;;;;2.64;100.00;96754.22;5316903;26;19926;-61
2024/04/18 00:24:29;;;;;;;3.95;1.90;;;;;;;2.63;100.00;96747.25;5328547;26;19997;-61
2024/04/18 00:26:56;;;;;;;3.55;1.90;;;;;;;2.56;100.00;96753.47;5321184;26;20005;-61
2024/04/18 00:29:33;;;;;;;3.47;1.90;;;;;;;2.55;100.00;96754.47;5319579;26;20017;-61
2024/04/18 00:32:13;;;;;;;3.67;1.80;;;;;;;2.56;100.00;96752.63;5328520;26;20096;-61
2024/04/18 00:34:58;;;;;;;3.88;1.85;;;;;;;2.68;100.00;96747.41;5316007;26;20023;-61
2024/04/18 00:37:35;;;;;;;3.80;1.80;;;;;;;2.64;100.00;96747.03;5325573;26;20017;-61
2024/04/18 00:40:02;;;;;;;4.30;2.00;;;;;;;2.57;100.00;96741.72;5321381;26;20037;-61
2024/04/18 00:42:36;;;;;;;3.72;2.00;;;;;;;2.51;100.00;96741.78;5326048;26;20009;-61
2024/04/18 00:45:06;;;;;;;3.95;1.88;;;;;;;2.59;100.00;96736.97;5330467;26;20005;-61
2024/04/18 00:47:45;;;;;;;3.28;1.80;;;;;;;2.63;100.00;96745.41;5326514;26;20541;-61
2024/04/18 00:50:12;;;;;;;3.17;1.90;;;;;;;2.62;100.00;96743.78;5330288;26;20016;-61
2024/04/18 00:52:39;;;;;;;4.53;1.90;;;;;;;2.59;100.00;96744.19;5328720;26;20001;-60
2024/04/18 00:55:06;;;;;;;3.60;1.80;;;;;;;2.60;100.00;96741.31;5328332;26;20001;-61
2024/04/18 00:57:36;;;;;;;3.78;2.00;;;;;;;2.53;100.00;96739.69;5326158;26;20012;-61
2024/04/18 01:00:05;;;;;;;5.75;2.28;;;;;;;2.61;100.00;96747.44;5326584;26;20001;-61
2024/04/18 01:02:50;;;;;;;5.32;2.20;;;;;;;2.59;100.00;96747.66;5326329;26;22706;-61
2024/04/18 01:05:32;;;;;;;3.83;2.33;;;;;;;2.58;100.00;96745.25;5325621;26;20001;-60
2024/04/18 01:08:01;;;;;;;4.63;2.78;;;;;;;2.51;100.00;96739.09;5303979;26;20013;-60
2024/04/18 01:10:48;;;;;;;6.70;2.05;;;;;;;2.49;100.00;96742.00;5319769;26;20555;-60
2024/04/18 01:13:15;;;;;;;8.15;2.65;;;;;;;2.43;100.00;96743.66;5300417;26;20053;-60
2024/04/18 01:16:00;;;;;;;5.47;2.30;;;;;;;2.42;100.00;96739.38;5318804;26;20052;-61
2024/04/18 01:18:27;;;;;;;4.30;2.58;;;;;;;2.39;100.00;96742.44;5308691;26;20023;-60
2024/04/18 01:21:13;;;;;;;5.10;2.30;;;;;;;2.40;100.00;96745.97;5317948;26;20078;-61
2024/04/18 01:23:39;;;;;;;5.30;2.33;;;;;;;2.35;100.00;96746.59;5318725;26;20005;-61
2024/04/18 01:26:10;;;;;;;5.18;2.97;;;;;;;2.43;100.00;96748.22;5318989;26;20052;-61
2024/04/18 01:28:37;;;;;;;5.63;2.63;;;;;;;2.50;100.00;96750.84;5308095;26;20005;-59
2024/04/18 01:31:03;;;;;;;5.20;2.75;;;;;;;2.27;100.00;96749.50;5317862;26;20012;-61
2024/04/18 01:33:31;;;;;;;4.80;2.63;;;;;;;2.28;100.00;96748.50;5323885;26;20000;-61
2024/04/18 01:35:58;;;;;;;4.35;2.42;;;;;;;2.25;100.00;96751.59;5317624;26;20430;-61
2024/04/18 01:38:25;;;;;;;6.28;3.47;;;;;;;2.22;100.00;96752.84;5322607;26;20011;-61
2024/04/18 01:40:52;;;;;;;5.55;2.88;;;;;;;2.24;100.00;96757.97;5332492;26;20430;-61
2024/04/18 01:43:37;;;;;;;4.15;2.40;;;;;;;2.19;100.00;96755.94;5327116;26;20049;-61
2024/04/18 01:46:22;;;;;;;6.15;2.50;;;;;;;2.15;100.00;96757.38;5319728;26;20020;-61
2024/04/18 01:48:58;;;;;;;5.40;2.80;;;;;;;2.20;100.00;96769.06;5329246;26;20476;-61
2024/04/18 01:51:44;;;;;;;5.53;2.60;;;;;;;2.19;100.00;96764.78;5328920;26;20135;-61
2024/04/18 01:54:29;;;;;;;9.02;3.05;;;;;;;2.25;100.00;96764.94;5319976;26;20020;-61
2024/04/18 01:56:56;;;;;;;4.97;2.92;;;;;;;2.41;100.00;96766.28;5331932;26;20079;-61
2024/04/18 01:59:23;;;;;;;6.20;3.30;;;;;;;2.33;100.00;96762.84;5332365;26;20023;-61
2024/04/18 02:01:50;;;;;;;5.53;2.88;;;;;;;2.35;100.00;96765.28;5314416;26;20012;-60
2024/04/18 02:04:17;;;;;;;5.50;3.00;;;;;;;2.42;100.00;96768.75;5332983;26;20053;-61
2024/04/18 02:06:47;;;;;;;4.55;2.50;;;;;;;2.42;100.00;96774.09;5317749;26;20020;-60
2024/04/18 02:09:22;;;;;;;4.53;2.70;;;;;;;2.48;100.00;96772.44;5327542;26;20001;-61
2024/04/18 02:11:49;;;;;;;5.53;3.25;;;;;;;2.56;100.00;96774.00;5330058;26;20008;-60
2024/04/18 02:14:35;;;;;;;5.30;3.10;;;;;;;2.55;100.00;96778.53;5316616;26;20185;-60
2024/04/18 02:17:02;;;;;;;4.57;2.88;;;;;;;2.54;100.00;96776.91;5332609;26;20033;-61
2024/04/18 02:19:29;;;;;;;4.88;2.83;;;;;;;2.45;100.00;96770.19;5332088;26;20074;-60
2024/04/18 02:22:14;;;;;;;5.88;3.13;;;;;;;2.52;100.00;96775.47;5327269;26;20562;-61
2024/04/18 02:25:03;;;;;;;4.75;2.88;;;;;;;2.56;100.00;96766.00;5317777;26;20071;-59
2024/04/18 02:27:30;;;;;;;5.93;3.33;;;;;;;2.49;100.00;96776.72;5331055;26;20009;-60
2024/04/18 02:30:17;;;;;;;5.35;3.28;;;;;;;2.48;100.00;96772.44;5313197;26;20016;-60
2024/04/18 02:32:44;;;;;;;7.07;3.40;;;;;;;2.57;100.00;96783.66;5317522;26;20012;-60
2024/04/18 02:35:13;;;;;;;6.30;3.75;;;;;;;2.53;100.00;96779.78;5321684;26;20025;-58
2024/04/18 02:37:57;;;;;;;5.93;3.40;;;;;;;2.49;100.00;96773.22;5327738;26;19996;-61
2024/04/18 02:40:24;;;;;;;5.90;3.13;;;;;;;2.58;100.00;96785.31;5331377;26;20348;-60
2024/04/18 02:43:01;;;;;;;6.88;4.28;;;;;;;2.60;100.00;96776.06;5316591;26;20026;-60
2024/04/18 02:45:30;;;;;;;10.20;5.00;;;;;;;2.68;100.00;96782.16;5328516;26;19997;-60
2024/04/18 02:48:16;;;;;;;8.90;4.82;;;;;;;2.69;100.00;96783.81;5324368;26;20016;-61
2024/04/18 02:50:42;;;;;;;11.38;5.10;;;;;;;2.59;100.00;96781.63;5326566;26;21548;-61
2024/04/18 02:53:09;;;;;;;9.05;4.50;;;;;;;2.64;100.00;96789.78;5322912;26;20017;-61
2024/04/18 02:55:56;;;;;;;10.07;5.90;;;;;;;2.57;100.00;96783.66;5327171;26;20727;-61
2024/04/18 02:58:31;;;;;;;10.05;5.45;;;;;;;2.54;100.00;96786.78;5303113;26;20041;-61
2024/04/18 03:01:16;;;;;;;8.95;5.85;;;;;;;2.59;100.00;96782.41;5328828;26;20465;-61
2024/04/18 03:03:43;;;;;;;9.50;5.63;;;;;;;2.73;100.00;96791.16;5330573;26;21958;-61
2024/04/18 03:06:09;;;;;;;10.35;6.05;;;;;;;2.75;100.00;96795.47;5332104;26;20009;-61
2024/04/18 03:08:38;;;;;;;9.18;5.78;;;;;;;2.66;100.00;96784.25;5330780;26;20473;-61
2024/04/18 03:11:14;;;;;;;9.10;6.00;;;;;;;2.57;100.00;96787.16;5320499;26;20005;-61
2024/04/18 03:14:02;;;;;;;10.30;6.35;;;;;;;2.65;100.00;96791.44;5319887;26;20020;-61
2024/04/18 03:16:29;;;;;;;12.02;6.88;;;;;;;2.64;100.00;96791.63;5324256;26;20590;-61
2024/04/18 03:19:15;;;;;;;10.57;5.93;;;;;;;2.56;100.00;96787.38;5315039;26;20012;-60
2024/04/18 03:21:52;;;;;;;10.85;6.28;;;;;;;2.40;100.00;96791.38;5321423;26;20004;-61
2024/04/18 03:24:21;;;;;;;10.70;6.07;;;;;;;2.55;100.00;96791.91;5328817;26;20058;-59
2024/04/18 03:26:48;;;;;;;9.18;6.32;;;;;;;2.67;100.00;96792.06;5333345;26;20044;-61
2024/04/18 03:29:15;;;;;;;9.27;5.93;;;;;;;2.60;100.00;96788.59;5329336;26;20001;-61
2024/04/18 03:31:57;;;;;;;9.77;6.45;;;;;;;2.79;100.00;96800.19;5326729;26;20024;-60
2024/04/18 03:34:42;;;;;;;10.85;6.28;;;;;;;2.85;100.00;96793.97;5333721;26;20800;-59
2024/04/18 03:37:09;;;;;;;9.30;6.57;;;;;;;2.74;100.00;96800.03;5324509;26;20025;-61
2024/04/18 03:39:35;;;;;;;10.32;6.05;;;;;;;2.77;100.00;96794.25;5328358;26;20001;-61
2024/04/18 03:42:02;;;;;;;9.75;6.65;;;;;;;2.63;100.00;96796.19;5333742;26;20017;-61
2024/04/18 03:44:47;;;;;;;9.07;5.82;;;;;;;2.58;100.00;96796.81;5332267;26;20019;-61
2024/04/18 03:47:14;;;;;;;8.82;5.95;;;;;;;2.70;100.00;96807.63;5322815;26;20017;-61
2024/04/18 03:50:01;;;;;;;8.85;5.72;;;;;;;2.56;100.00;96793.56;5329255;26;20728;-61
2024/04/18 03:52:37;;;;;;;9.95;5.68;;;;;;;2.63;100.00;96800.69;5334184;26;20360;-61
2024/04/18 03:55:35;;;;;;;9.98;5.38;;;;;;;2.58;100.00;96802.16;5334032;26;20521;-60
2024/04/18 03:58:02;;;;;;;7.35;5.20;;;;;;;2.55;100.00;96797.25;5336832;26;20076;-60
2024/04/18 04:00:47;;;;;;;9.38;5.60;;;;;;;2.56;100.00;96801.56;5328233;26;20004;-60
2024/04/18 04:03:14;;;;;;;10.02;5.97;;;;;;;2.55;100.00;96804.47;5326629;26;20008;-61
2024/04/18 04:05:41;;;;;;;8.95;5.57;;;;;;;2.53;100.00;96801.16;5338656;26;19997;-60
2024/04/18 04:08:09;;;;;;;8.38;5.28;;;;;;;2.68;100.00;96812.41;5336973;26;20547;-60
2024/04/18 04:10:37;;;;;;;8.85;5.30;;;;;;;2.67;100.00;96813.44;5333016;26;20001;-60
2024/04/18 04:13:03;;;;;;;10.63;6.22;;;;;;;2.65;100.00;96809.34;5333559;26;20513;-60
2024/04/18 04:15:46;;;;;;;9.10;6.53;;;;;;;2.61;100.00;96824.97;5322166;26;20086;-60
2024/04/18 04:18:33;;;;;;;9.93;6.50;;;;;;;2.67;100.00;96821.44;5322116;26;20439;-61
2024/04/18 04:21:16;;;;;;;10.00;6.30;;;;;;;2.69;100.00;96824.72;5329277;26;20044;-61
2024/04/18 04:23:43;;;;;;;10.43;6.03;;;;;;;2.60;100.00;96832.19;5323707;26;20005;-61
2024/04/18 04:26:10;;;;;;;8.77;5.82;;;;;;;2.64;100.00;96831.72;5332669;26;20004;-61
2024/04/18 04:28:37;;;;;;;9.73;6.13;;;;;;;2.63;100.00;96836.28;5331268;26;19998;-61
2024/04/18 04:31:04;;;;;;;9.75;5.78;;;;;;;2.64;100.00;96843.25;5328936;26;20000;-61
2024/04/18 04:33:32;;;;;;;9.35;5.60;;;;;;;2.76;100.00;96835.38;5335951;26;20001;-61
2024/04/18 04:35:59;;;;;;;8.55;5.68;;;;;;;2.82;100.00;96834.53;5323461;26;20920;-61
2024/04/18 04:38:26;;;;;;;8.70;5.80;;;;;;;2.80;100.00;96844.59;5333342;26;20056;-60
2024/04/18 04:40:53;;;;;;;7.75;5.00;;;;;;;2.70;100.00;96849.59;5331571;26;20402;-61
2024/04/18 04:43:20;;;;;;;7.88;5.45;;;;;;;2.67;100.00;96856.22;5315414;26;20084;-61
2024/04/18 04:45:46;;;;;;;9.23;5.70;;;;;;;2.70;100.00;96865.66;5321428;26;20355;-61
2024/04/18 04:48:33;;;;;;;8.55;5.63;;;;;;;2.57;100.00;96863.84;5325887;26;20023;-60
2024/04/18 04:51:10;;;;;;;8.32;5.60;;;;;;;2.52;100.00;96861.84;5321927;26;20750;-60
2024/04/18 04:53:36;;;;;;;10.05;5.70;;;;;;;2.67;100.00;96876.75;5320147;26;20009;-61
2024/04/18 04:56:03;;;;;;;9.15;5.93;;;;;;;2.71;100.00;96881.47;5327743;26;20015;-61
2024/04/18 04:58:30;;;;;;;8.73;5.43;;;;;;;2.63;100.00;96875.53;5328171;26;20021;-61
2024/04/18 05:00:57;;;;;;;9.65;5.85;;;;;;;2.63;100.00;96884.41;5325860;26;20017;-61
2024/04/18 05:03:36;;;;;;;8.60;5.13;;;;;;;2.66;100.00;96883.16;5331650;26;20506;-61
2024/04/18 05:06:21;;;;;;;9.52;5.80;;;;;;;2.64;100.00;96894.06;5322541;26;20090;-61
2024/04/18 05:09:08;;;;;;;8.73;5.20;;;;;;;2.55;100.00;96887.31;5333761;26;20546;-61
2024/04/18 05:11:34;;;;;;;9.02;5.38;;;;;;;2.63;100.00;96892.41;5332329;26;20013;-61
2024/04/18 05:14:01;;;;;;;7.95;5.07;;;;;;;2.63;100.00;96903.09;5333990;26;20024;-61
2024/04/18 05:16:46;;;;;;;8.07;5.47;;;;;;;2.69;100.00;96896.09;5335503;26;20016;-61
2024/04/18 05:19:13;;;;;;;9.90;5.95;;;;;;;2.70;100.00;96901.19;5337267;26;20004;-61
2024/04/18 05:21:39;;;;;;;6.93;4.90;;;;;;;2.67;100.00;96903.50;5342798;26;20051;-61
2024/04/18 05:24:25;;;;;;;8.20;5.35;;;;;;;2.77;100.00;96897.69;5338615;26;20867;-61
2024/04/18 05:26:51;;;;;;;8.48;5.43;;;;;;;2.75;100.00;96905.09;5305202;26;20001;-61
2024/04/18 05:32:04;;;;;;;9.95;6.07;;;;;;;2.69;100.00;96920.16;5323294;26;20012;-58
2024/04/18 05:34:31;;;;;;;8.75;5.90;;;;;;;2.79;100.00;96911.66;5331983;26;20011;-60
2024/04/18 05:36:58;;;;;;;11.50;5.38;;;;;;;2.84;100.00;96914.53;5321677;26;20090;-61
2024/04/18 05:39:25;;;;;;;8.15;5.15;;;;;;;2.81;100.00;96914.94;5329460;26;20013;-60
2024/04/18 05:41:51;;;;;;;7.93;5.00;;;;;;;2.88;100.00;96918.44;5317538;26;20079;-60
2024/04/18 05:44:38;;;;;;;8.13;5.20;;;;;;;2.97;100.00;96927.00;5333018;26;20005;-60
2024/04/18 05:47:05;;;;;;;8.45;5.57;;;;;;;3.07;100.00;96926.53;5329894;26;20012;-61
2024/04/18 05:49:31;;;;;;;8.75;5.60;;;;;;;3.23;100.00;96934.06;5323491;26;20008;-61
2024/04/18 05:51:58;;;;;;;10.20;6.00;;;;;;;3.11;100.00;96933.09;5333798;26;20015;-61
2024/04/18 05:54:29;;;;;;;8.32;5.28;;;;;;;2.98;100.00;96939.34;5323282;26;20000;-60
2024/04/18 05:57:05;;;;;;;7.57;5.07;;;;;;;2.99;100.00;96941.81;5333862;26;20004;-60
2024/04/18 05:59:54;;;;;;;7.03;4.70;;;;;;;3.14;100.00;96939.88;5325956;26;20041;-61
2024/04/18 06:02:21;;;;;;;8.15;5.32;;;;;;;3.35;100.00;96950.25;5326687;26;20576;-60
2024/04/18 06:04:47;;;;;;;9.18;5.68;;;;;;;3.51;100.00;96953.44;5327029;26;20485;-61
2024/04/18 06:07:33;;;;;;;7.72;5.57;;;;;;;3.59;100.00;96961.22;5315486;26;20068;-61
2024/04/18 06:10:00;;;;;;;8.38;5.47;;;;;;;3.63;100.00;96954.38;5323402;26;20544;-61
2024/04/18 06:12:26;;;;;;;9.25;5.25;;;;;;;3.53;100.00;96963.94;5317835;26;20012;-61
2024/04/18 06:14:53;;;;;;;8.57;5.75;;;;;;;3.57;100.00;96954.44;5320513;26;20030;-61
2024/04/18 06:17:20;;;;;;;8.40;5.68;;;;;;;3.64;100.00;96968.56;5319664;26;20353;-61
2024/04/18 06:19:50;;;;;;;8.73;5.53;;;;;;;3.56;100.00;96976.88;5324352;26;20011;-60
2024/04/18 06:22:26;;;;;;;8.73;5.90;;;;;;;3.51;100.00;96982.88;5315059;26;20037;-61
2024/04/18 06:25:13;;;;;;;8.27;5.35;;;;;;;3.48;100.00;96986.81;5324321;26;20009;-61
2024/04/18 06:27:39;;;;;;;8.02;5.13;;;;;;;3.49;100.00;96987.63;5312020;26;20002;-61
2024/04/18 06:30:07;;;;;;;7.78;5.28;;;;;;;3.34;100.00;96987.91;5313487;26;20009;-61
2024/04/18 06:32:33;;;;;;;6.82;4.43;;;;;;;3.24;100.00;96996.41;5315254;26;20002;-61
2024/04/18 06:35:00;;;;;;;8.88;5.50;;;;;;;3.35;100.00;96986.88;5322183;26;20002;-61
2024/04/18 06:37:26;;;;;;;8.18;5.05;;;;;;;3.43;100.00;96997.31;5323022;26;20011;-61
2024/04/18 06:39:53;;;;;;;7.00;4.03;;;;;;;3.40;100.00;96992.44;5327580;26;20024;-61
2024/04/18 06:42:20;;;;;;;6.00;3.13;;;;;;;3.27;100.00;97003.22;5313644;26;20005;-60
2024/04/18 06:44:47;;;;;;;5.63;3.30;;;;;;;3.40;100.00;97004.97;5313268;26;20702;-61
2024/04/18 06:47:13;;;;;;;6.80;3.53;;;;;;;3.50;100.00;97016.84;5328387;26;20041;-61
2024/04/18 06:50:00;;;;;;;5.25;3.03;;;;;;;3.68;100.00;97017.19;5320141;26;20008;-61
2024/04/18 06:52:26;;;;;;;5.90;2.90;;;;;;;3.64;100.00;97019.44;5327980;26;20013;-61
2024/04/18 06:54:53;;;;;;;4.68;2.47;;;;;;;3.58;100.00;97021.13;5326899;26;20079;-61
2024/04/18 06:57:39;;;;;;;4.85;2.33;;;;;;;3.55;100.00;97018.91;5323930;26;20019;-61
2024/04/18 07:00:06;;;;;;;4.00;2.30;;;;;;;3.68;100.00;97020.66;5336879;26;20004;-60
2024/04/18 07:02:33;;;;;;;3.63;2.05;;;;;;;3.68;100.00;97026.00;5323010;26;20025;-61
2024/04/18 07:05:18;;;;;;;2.72;1.50;;;;;;;3.60;100.00;97024.44;5321255;26;20016;-61
2024/04/18 07:07:45;;;;;;;3.67;1.60;;;;;;;3.76;100.00;97038.34;5325725;26;20008;-59
2024/04/18 07:10:31;;;;;;;2.17;1.40;;;;;;;3.50;100.00;97038.28;5324919;26;20434;-60
2024/04/18 07:13:17;;;;;;;1.85;1.20;;;;;;;3.86;100.00;97045.88;5318356;26;20008;-59
2024/04/18 07:15:53;;;;;;;1.80;0.95;;;;;;;3.95;100.00;97043.75;5327976;26;20009;-61
2024/04/18 07:18:39;;;;;;;3.03;1.40;;;;;;;3.87;100.00;97055.56;5325412;26;20059;-60
2024/04/18 07:21:06;;;;;;;2.15;1.30;;;;;;;3.94;100.00;97053.66;5331987;26;20491;-61
2024/04/18 07:23:36;;;;;;;2.28;1.23;;;;;;;3.50;100.00;97054.34;5322332;26;20030;-61
2024/04/18 07:26:03;;;;;;;2.65;1.60;;;;;;;3.61;100.00;97057.38;5327138;26;20009;-61
2024/04/18 07:28:29;;;;;;;2.13;1.17;;;;;;;3.69;100.00;97064.34;5317683;26;20001;-61
2024/04/18 07:30:56;;;;;;;2.13;1.20;;;;;;;3.80;100.00;97066.34;5341822;26;20013;-61
2024/04/18 07:33:23;;;;;;;2.25;1.10;;;;;;;3.89;100.00;97075.75;5331634;26;20036;-61
2024/04/18 07:35:58;;;;;;;4.10;1.35;;;;;;;3.93;100.00;97073.44;5326424;26;20001;-61
2024/04/18 07:38:26;;;;;;;2.20;1.10;;;;;;;3.58;100.00;97076.53;5330505;26;20008;-61
2024/04/18 07:40:52;;;;;;;1.73;1.00;;;;;;;3.50;100.00;97080.28;5324840;26;20012;-60
2024/04/18 07:43:19;;;;;;;1.52;1.00;;;;;;;3.59;100.00;97081.69;5335837;26;20001;-60
2024/04/18 07:45:46;;;;;;;1.90;0.98;;;;;;;4.00;100.00;97076.91;5330396;26;20766;-61
2024/04/18 07:48:12;;;;;;;1.65;0.90;;;;;;;4.39;100.00;97079.47;5336726;26;20009;-61
2024/04/18 07:50:39;;;;;;;1.98;1.00;;;;;;;4.03;100.00;97089.03;5345887;26;20012;-61
2024/04/18 07:53:06;;;;;;;1.75;1.02;;;;;;;3.97;100.00;97093.41;5324743;26;20001;-59
2024/04/18 07:55:36;;;;;;;2.72;0.98;;;;;;;4.11;100.00;97094.16;5346692;26;20004;-61
2024/04/18 07:58:02;;;;;;;0.98;0.65;;;;;;;3.80;100.00;97100.31;5328247;26;20033;-61
2024/04/18 08:00:30;;;;;;;1.40;0.80;;;;;;;4.20;100.00;97105.41;5342270;26;20020;-60
2024/04/18 08:03:00;;;;;;;2.33;0.60;;;;;;;4.31;100.00;97100.41;5337602;26;20024;-60
2024/04/18 08:05:31;;;;;;;0.85;0.60;;;;;;;4.58;100.00;97101.00;5335381;26;20016;-61
2024/04/18 08:08:02;;;;;;;1.10;0.65;;;;;;;4.72;100.00;97106.22;5335884;26;20001;-61
2024/04/18 08:10:34;;;;;;;;;;;;;;;4.81;100.00;97113.78;5324180;26;20013;-61
2024/04/18 08:13:20;;;;;;;1.40;0.80;;;;;;;4.90;100.00;97118.88;5324959;26;20299;-61
2024/04/18 08:15:55;;;;;;;1.92;1.08;;;;;;;4.31;100.00;97119.16;5325759;26;20008;-61
2024/04/18 08:18:22;;;;;;;1.77;1.08;;;;;;;4.50;100.00;97136.13;5324863;26;20057;-61
2024/04/18 08:20:50;;;;;;;1.73;1.13;;;;;;;4.63;100.00;97133.34;5339857;26;20088;-61
2024/04/18 08:23:20;;;;;;;3.05;1.30;;;;;;;4.55;100.00;97142.47;5326262;26;20001;-61
2024/04/18 08:25:46;;;;;;;2.40;1.35;;;;;;;4.53;100.00;97138.34;5320700;26;20020;-61
2024/04/18 08:28:14;;;;;;;1.92;1.17;;;;;;;4.60;100.00;97136.44;5333379;26;20366;-61
2024/04/18 08:30:40;;;;;;;4.07;1.40;;;;;;;4.78;100.00;97146.41;5323074;26;20005;-61
2024/04/18 08:33:07;;;;;;;2.97;1.45;;;;;;;4.67;100.00;97152.47;5316438;26;20001;-60
2024/04/18 08:35:34;;;;;;;2.20;1.30;;;;;;;4.69;100.00;97153.91;5327061;26;20001;-60
2024/04/18 08:38:01;;;;;;;2.83;1.60;;;;;;;4.44;100.00;97156.59;5326920;26;20023;-60
2024/04/18 08:40:28;;;;;;;2.92;2.00;;;;;;;4.48;100.00;97152.44;5330245;26;20009;-61
2024/04/18 08:42:55;;;;;;;3.30;1.55;;;;;;;4.43;100.00;97150.38;5329500;26;20001;-61
2024/04/18 08:45:25;;;;;;;4.05;1.95;;;;;;;4.89;100.00;97147.53;5335383;26;19997;-61
2024/04/18 08:47:52;;;;;;;3.50;1.83;;;;;;;5.29;100.00;97153.56;5328537;26;20011;-61
2024/04/18 08:50:20;;;;;;;4.93;2.65;;;;;;;5.36;100.00;97153.47;5325398;26;20020;-61
2024/04/18 08:52:46;;;;;;;4.80;2.55;;;;;;;5.39;100.00;97156.56;5332793;26;20075;-61
2024/04/18 08:55:13;;;;;;;4.30;2.60;;;;;;;5.44;100.00;97163.91;5333380;26;20011;-61
2024/04/18 08:58:09;;;;;;;5.40;3.45;;;;;;;5.78;100.00;97167.03;5330513;26;20044;-62
2024/04/18 09:00:39;;;;;;;7.65;2.70;;;;;;;5.42;100.00;97168.69;5333892;26;20056;-62
2024/04/18 09:03:07;;;;;;;5.10;2.88;;;;;;;5.63;100.00;97172.78;5331074;26;20009;-61
2024/04/18 09:05:34;;;;;;;5.00;2.67;;;;;;;5.47;100.00;97179.59;5334496;26;19997;-61
2024/04/18 09:08:02;;;;;;;4.38;2.95;;;;;;;5.57;100.00;97177.19;5337012;26;20020;-61
2024/04/18 09:10:29;;;;;;;4.13;2.83;;;;;;;5.89;100.00;97181.56;5328912;26;20013;-61
2024/04/18 09:12:56;;;;;;;5.60;3.53;;;;;;;5.46;100.00;97181.44;5333806;26;20005;-61
2024/04/18 09:15:27;;;;;;;4.55;2.95;;;;;;;5.85;100.00;97175.00;5341461;26;20066;-62
2024/04/18 09:18:03;;;;;;;5.55;3.78;;;;;;;5.32;100.00;97180.78;5342751;26;20016;-60
2024/04/18 09:20:35;;;;;;;5.85;3.25;;;;;;;5.75;100.00;97178.22;5342448;26;20853;-61
2024/04/18 09:23:02;;;;;;;6.57;3.72;;;;;;;5.60;100.00;97173.22;5333481;26;20393;-61
2024/04/18 09:25:30;;;;;;;6.45;3.58;;;;;;;5.37;100.00;97176.59;5332583;26;20005;-60
2024/04/18 09:28:01;;;;;;;5.80;4.07;;;;;;;6.10;100.00;97174.94;5333417;26;20807;-61
2024/04/18 09:30:28;;;;;;;5.32;3.80;;;;;;;5.82;100.00;97181.66;5339189;26;20075;-61
2024/04/18 09:32:56;;;;;;;8.18;4.40;;;;;;;5.95;100.00;97183.38;5335635;26;20012;-61
2024/04/18 09:35:28;;;;;;;4.82;3.47;;;;;;;6.03;100.00;97179.56;5336697;26;20075;-61
2024/04/18 09:37:56;;;;;;;6.85;4.38;;;;;;;5.52;100.00;97190.47;5338617;26;20596;-61
2024/04/18 09:40:40;;;;;;;8.63;4.35;;;;;;;5.82;100.00;97189.72;5336415;26;20045;-60
2024/04/18 09:43:23;;;;;;;6.70;3.50;;;;;;;5.82;100.00;97184.34;5335738;26;20810;-61
2024/04/18 09:46:09;;;;;;;7.13;4.10;;;;;;;6.27;100.00;97193.13;5346496;26;20012;-61
2024/04/18 09:48:36;;;;;;;5.75;3.38;;;;;;;6.45;100.00;97188.72;5331469;26;20056;-61
2024/04/18 09:51:05;;;;;;;5.63;3.85;;;;;;;7.05;100.00;97199.56;5338501;26;20001;-61
2024/04/18 09:53:33;;;;;;;6.95;3.50;;;;;;;7.05;100.00;97208.47;5331307;26;20001;-61
2024/04/18 09:56:00;;;;;;;7.10;3.58;;;;;;;7.10;100.00;97207.75;5330915;26;20011;-61
2024/04/18 09:58:27;;;;;;;10.88;3.80;;;;;;;7.13;100.00;97204.59;5330879;26;20017;-60
2024/04/18 10:00:55;;;;;;;5.65;3.80;;;;;;;6.93;100.00;97213.81;5338513;26;20040;-61
2024/04/18 10:03:24;;;;;;;5.97;3.33;;;;;;;7.23;100.00;97206.72;5333408;26;20008;-61
2024/04/18 10:05:54;;;;;;;6.57;3.80;;;;;;;7.73;100.00;97208.06;5336335;26;20000;-61
2024/04/18 10:08:27;;;;;;;5.88;3.67;;;;;;;7.96;100.00;97216.34;5337592;26;20018;-62
2024/04/18 10:10:54;;;;;;;5.65;3.90;;;;;;;7.10;100.00;97219.34;5314731;26;19997;-61
2024/04/18 10:13:23;;;;;;;6.75;4.30;;;;;;;6.55;100.00;97221.25;5347669;26;20005;-62
2024/04/18 10:16:12;;;;;;;6.57;4.10;;;;;;;6.52;100.00;97231.66;5351706;26;20008;-62
2024/04/18 10:18:39;;;;;;;6.95;4.63;;;;;;;6.35;100.00;97229.59;5321306;26;20015;-61
2024/04/18 10:21:25;;;;;;;6.60;4.30;;;;;;;6.14;100.00;97233.59;5337858;26;20016;-61
2024/04/18 10:24:09;;;;;;;7.22;4.68;;;;;;;5.69;100.00;97236.38;5335615;26;20412;-61
2024/04/18 10:26:37;;;;;;;6.43;4.07;;;;;;;5.99;100.00;97237.47;5332458;26;20188;-61
2024/04/18 10:29:04;;;;;;;8.77;5.15;;;;;;;5.93;100.00;97247.25;5342484;26;20024;-61
2024/04/18 10:31:30;;;;;;;6.88;4.20;;;;;;;6.14;100.00;97239.81;5335746;26;20029;-60
2024/04/18 10:33:57;;;;;;;7.28;5.03;;;;;;;5.91;100.00;97235.09;5336140;26;20044;-61
2024/04/18 10:36:24;;;;;;;9.73;5.40;;;;;;;5.93;100.00;97241.88;5328823;26;20018;-60
2024/04/18 10:38:51;;;;;;;8.43;5.53;;;;;;;5.86;100.00;97246.50;5334847;26;20033;-60
2024/04/18 10:41:22;;;;;;;7.13;4.75;;;;;;;5.92;100.00;97242.09;5345734;26;19997;-61
2024/04/18 10:43:49;;;;;;;6.95;4.88;;;;;;;5.76;100.00;97249.75;5344753;26;20001;-61
2024/04/18 10:46:18;;;;;;;7.72;5.68;;;;;;;5.92;100.00;97248.31;5332219;26;20005;-61
2024/04/18 10:48:50;;;;;;;6.60;4.88;;;;;;;6.34;100.00;97252.97;5342266;26;20493;-61
2024/04/18 10:51:17;;;;;;;6.95;4.40;;;;;;;5.88;100.00;97251.66;5342665;26;20060;-61
2024/04/18 10:53:44;;;;;;;5.95;4.35;;;;;;;6.51;100.00;97252.34;5327483;26;20017;-61
2024/04/18 10:56:11;;;;;;;7.13;4.72;;;;;;;6.53;100.00;97250.25;5332927;26;20007;-60
2024/04/18 10:58:39;;;;;;;6.45;4.20;;;;;;;6.75;100.00;97253.22;5323948;26;20025;-61
2024/04/18 11:01:05;;;;;;;6.13;3.70;;;;;;;6.96;100.00;97253.75;5328318;26;20013;-60
2024/04/18 11:03:32;;;;;;;6.07;4.25;;;;;;;6.92;100.00;97257.16;5330471;26;20005;-61
2024/04/18 11:06:02;;;;;;;5.82;4.00;;;;;;;7.70;100.00;97256.25;5335794;26;20001;-61
2024/04/18 11:08:29;;;;;;;6.60;4.70;;;;;;;8.06;100.00;97251.59;5338538;26;20001;-61
2024/04/18 11:11:02;;;;;;;7.95;4.65;;;;;;;8.25;100.00;97259.53;5330279;26;20005;-61
2024/04/18 11:13:29;;;;;;;6.40;3.50;;;;;;;7.01;100.00;97263.84;5332259;26;20052;-61
2024/04/18 11:15:56;;;;;;;4.88;2.70;;;;;;;5.76;100.00;97265.03;5327912;26;20004;-61
2024/04/18 11:18:22;;;;;;;5.25;2.80;;;;;;;6.02;100.00;97271.97;5333140;26;20091;-61
2024/04/18 11:20:51;;;;;;;4.93;2.97;;;;;;;5.91;100.00;97261.97;5324377;26;20001;-60
2024/04/18 11:23:22;;;;;;;5.00;3.30;;;;;;;5.96;100.00;97268.31;5329303;26;20013;-61
2024/04/18 11:26:00;;;;;;;5.80;3.38;;;;;;;5.75;100.00;97266.88;5326722;26;20034;-61
2024/04/18 11:28:28;;;;;;;4.45;2.70;;;;;;;6.06;100.00;97267.81;5331195;26;20028;-60
2024/04/18 11:30:55;;;;;;;7.75;3.38;;;;;;;5.84;100.00;97264.72;5332132;26;20028;-61
2024/04/18 11:33:22;;;;;;;4.10;2.65;;;;;;;5.81;100.00;97259.78;5334402;26;20020;-61
2024/04/18 11:35:49;;;;;;;6.13;3.47;;;;;;;5.35;100.00;97268.13;5336988;26;20005;-61
2024/04/18 11:38:20;;;;;;;5.80;3.25;;;;;;;5.66;100.00;97260.16;5335394;26;19996;-60
2024/04/18 11:40:46;;;;;;;5.88;3.42;;;;;;;6.13;100.00;97272.28;5337309;26;20020;-60
2024/04/18 11:43:13;;;;;;;6.72;4.35;;;;;;;6.30;100.00;97269.81;5336524;26;20805;-60
2024/04/18 11:45:40;;;;;;;6.35;4.07;;;;;;;6.74;100.00;97274.97;5329148;26;20009;-60
2024/04/18 11:48:07;;;;;;;6.72;3.90;;;;;;;7.28;100.00;97269.59;5331842;26;20009;-60
2024/04/18 11:50:34;;;;;;;6.88;4.18;;;;;;;7.52;100.00;97266.09;5332837;26;20042;-61
2024/04/18 11:53:00;;;;;;;5.85;4.13;;;;;;;7.08;100.00;97266.41;5321263;26;20032;-61
2024/04/18 11:55:27;;;;;;;5.82;4.13;;;;;;;7.26;100.00;97257.44;5349212;26;20744;-61
2024/04/18 11:57:54;;;;;;;5.88;4.03;;;;;;;7.35;100.00;97271.34;5344502;26;20004;-60